Time;durP1;ratioP1;P1;durP2;ratioP2;P2;SDS_P1;SDS_P2;PMS_P1;PMS_P2;Temp;Humidity;BMP_temperature;BMP_pressure;BME280_temperature;BME280_humidity;BME280_pressure;Samples;Min_cycle;Max_cycle;Signal;HPM_P1;HPM_P2
2023/09/15 00:00:58;;;;;;;19.17;11.43;;;;;;;;;;5031708;28;20112;-58
2023/09/15 00:03:24;;;;;;;20.20;10.95;;;;;;;;;;5032026;28;20637;-61
2023/09/15 00:05:51;;;;;;;20.17;11.15;;;;;;;;;;5013969;28;20065;-61
2023/09/15 00:08:17;;;;;;;19.00;11.25;;;;;;;;;;5031176;28;20025;-61
2023/09/15 00:10:44;;;;;;;22.85;11.82;;;;;;;;;;5030840;28;20036;-60
2023/09/15 00:13:11;;;;;;;18.75;10.77;;;;;;;;;;5031434;28;20065;-61
2023/09/15 00:15:37;;;;;;;24.13;12.15;;;;;;;;;;5031517;28;20029;-61
2023/09/15 00:18:03;;;;;;;18.98;11.52;;;;;;;;;;5031657;28;20026;-59
2023/09/15 00:20:30;;;;;;;19.55;10.70;;;;;;;;;;5031062;28;20022;-60
2023/09/15 00:22:56;;;;;;;21.10;11.65;;;;;;;;;;5013461;28;20032;-60
2023/09/15 00:25:26;;;;;;;21.17;12.55;;;;;;;;;;5031920;28;20543;-60
2023/09/15 00:27:54;;;;;;;20.92;12.55;;;;;;;;;;5031785;28;20024;-58
2023/09/15 00:30:21;;;;;;;21.83;11.68;;;;;;;;;;5031515;28;20021;-59
2023/09/15 00:32:48;;;;;;;19.67;10.57;;;;;;;;;;5013817;28;20030;-59
2023/09/15 00:35:16;;;;;;;21.27;10.38;;;;;;;;;;5031680;28;20028;-61
2023/09/15 00:37:43;;;;;;;19.35;11.00;;;;;;;;;;5013286;28;20025;-61
2023/09/15 00:40:10;;;;;;;20.45;10.93;;;;;;;;;;5030936;28;20049;-60
2023/09/15 00:42:37;;;;;;;23.38;11.23;;;;;;;;;;5030828;28;20179;-60
2023/09/15 00:45:06;;;;;;;18.20;10.85;;;;;;;;;;5030861;28;20109;-60
2023/09/15 00:47:34;;;;;;;21.10;11.20;;;;;;;;;;5030768;28;20031;-60
2023/09/15 00:50:00;;;;;;;21.88;11.00;;;;;;;;;;5030759;28;20022;-61
2023/09/15 00:52:27;;;;;;;18.98;10.85;;;;;;;;;;5030759;28;20025;-60
2023/09/15 00:54:53;;;;;;;17.67;10.57;;;;;;;;;;5031258;28;20075;-60
2023/09/15 00:57:19;;;;;;;20.83;11.65;;;;;;;;;;5030988;28;20447;-61
2023/09/15 00:59:45;;;;;;;19.73;10.35;;;;;;;;;;5030564;28;20022;-61
2023/09/15 01:02:12;;;;;;;21.63;11.38;;;;;;;;;;5031001;28;20074;-61
2023/09/15 01:04:39;;;;;;;19.40;10.80;;;;;;;;;;5030533;28;20029;-61
2023/09/15 01:07:05;;;;;;;23.17;10.80;;;;;;;;;;5030625;28;20029;-61
2023/09/15 01:09:31;;;;;;;20.85;11.63;;;;;;;;;;5030627;28;20064;-63
2023/09/15 01:11:58;;;;;;;20.20;11.23;;;;;;;;;;5030306;28;20040;-61
2023/09/15 01:14:24;;;;;;;18.38;10.70;;;;;;;;;;5030682;28;20033;-60
2023/09/15 01:16:53;;;;;;;20.58;11.45;;;;;;;;;;5030751;28;20116;-60
2023/09/15 01:19:38;;;;;;;20.73;11.10;;;;;;;;;;5030505;28;20025;-61
2023/09/15 01:22:23;;;;;;;19.63;11.43;;;;;;;;;;5030727;28;20376;-61
2023/09/15 01:24:50;;;;;;;22.52;11.48;;;;;;;;;;5012951;28;20025;-62
2023/09/15 01:27:16;;;;;;;18.95;11.02;;;;;;;;;;5030411;28;20021;-61
2023/09/15 01:29:45;;;;;;;22.55;11.65;;;;;;;;;;5012465;28;20394;-60
2023/09/15 01:32:12;;;;;;;19.60;11.57;;;;;;;;;;5030293;28;20037;-59
2023/09/15 01:34:38;;;;;;;22.20;11.80;;;;;;;;;;5030486;28;20103;-63
2023/09/15 01:37:04;;;;;;;20.15;11.75;;;;;;;;;;5031057;28;20509;-61
2023/09/15 01:39:30;;;;;;;20.67;11.45;;;;;;;;;;5030806;28;20037;-61
2023/09/15 01:42:00;;;;;;;23.38;12.32;;;;;;;;;;5030469;28;20022;-61
2023/09/15 01:44:26;;;;;;;21.85;11.52;;;;;;;;;;5030465;28;20415;-60
2023/09/15 01:46:53;;;;;;;25.10;11.68;;;;;;;;;;5030424;28;20033;-61
2023/09/15 01:49:20;;;;;;;22.63;13.23;;;;;;;;;;5030293;28;20376;-60
2023/09/15 01:51:46;;;;;;;24.33;12.40;;;;;;;;;;5030393;28;20021;-60
2023/09/15 01:54:12;;;;;;;20.60;12.43;;;;;;;;;;5030478;28;20021;-60
2023/09/15 01:56:38;;;;;;;19.42;11.80;;;;;;;;;;5030227;28;20053;-60
2023/09/15 01:59:04;;;;;;;22.20;11.82;;;;;;;;;;5031270;28;20486;-59
2023/09/15 02:01:30;;;;;;;23.70;11.77;;;;;;;;;;5034031;28;20029;-60
2023/09/15 02:03:56;;;;;;;19.17;11.68;;;;;;;;;;5033994;28;20026;-60
2023/09/15 02:06:22;;;;;;;23.88;11.90;;;;;;;;;;5033806;28;20163;-60
2023/09/15 02:08:48;;;;;;;20.08;10.88;;;;;;;;;;5033886;28;20163;-60
2023/09/15 02:11:14;;;;;;;22.90;11.68;;;;;;;;;;5033658;28;20064;-60
2023/09/15 02:13:41;;;;;;;23.63;11.95;;;;;;;;;;5033398;28;20467;-60
2023/09/15 02:16:07;;;;;;;19.70;11.32;;;;;;;;;;5033395;28;20372;-60
2023/09/15 02:18:33;;;;;;;20.25;11.82;;;;;;;;;;5032912;28;20213;-59
2023/09/15 02:20:59;;;;;;;20.25;11.25;;;;;;;;;;5033085;28;20627;-60
2023/09/15 02:23:25;;;;;;;21.58;12.25;;;;;;;;;;5033628;28;20036;-58
2023/09/15 02:25:52;;;;;;;20.90;11.80;;;;;;;;;;5015640;28;20069;-60
2023/09/15 02:28:19;;;;;;;20.90;12.18;;;;;;;;;;5033303;28;20471;-60
2023/09/15 02:30:45;;;;;;;22.85;12.02;;;;;;;;;;5033189;28;20056;-60
2023/09/15 02:33:11;;;;;;;20.80;11.60;;;;;;;;;;5033147;28;20529;-60
2023/09/15 02:35:37;;;;;;;19.10;12.25;;;;;;;;;;5033015;28;20471;-60
2023/09/15 02:38:03;;;;;;;21.70;12.05;;;;;;;;;;5032801;28;20045;-60
2023/09/15 02:40:30;;;;;;;22.85;13.25;;;;;;;;;;5032848;28;20045;-59
2023/09/15 02:42:56;;;;;;;19.80;12.07;;;;;;;;;;5033001;28;20156;-60
2023/09/15 02:45:22;;;;;;;21.77;12.80;;;;;;;;;;5033245;28;20528;-60
2023/09/15 02:47:48;;;;;;;19.98;11.68;;;;;;;;;;5032741;28;20116;-60
2023/09/15 02:50:14;;;;;;;23.63;12.20;;;;;;;;;;5032703;28;20116;-60
2023/09/15 02:52:40;;;;;;;19.75;11.70;;;;;;;;;;5033207;28;20432;-59
2023/09/15 02:55:08;;;;;;;22.75;11.75;;;;;;;;;;5032926;28;20055;-60
2023/09/15 02:57:34;;;;;;;20.55;11.68;;;;;;;;;;5032745;28;20022;-60
2023/09/15 03:00:00;;;;;;;21.73;12.48;;;;;;;;;;5032115;28;20021;-60
2023/09/15 03:02:26;;;;;;;20.02;12.10;;;;;;;;;;5014798;28;20139;-60
2023/09/15 03:04:52;;;;;;;21.65;12.90;;;;;;;;;;5032600;28;20105;-60
2023/09/15 03:07:18;;;;;;;20.17;11.65;;;;;;;;;;5032504;28;20160;-60
2023/09/15 03:09:44;;;;;;;18.58;11.18;;;;;;;;;;5032028;28;20022;-60
2023/09/15 03:12:10;;;;;;;20.95;11.35;;;;;;;;;;5013699;28;20471;-59
2023/09/15 03:14:36;;;;;;;21.85;12.02;;;;;;;;;;5032099;28;20061;-59
2023/09/15 03:17:03;;;;;;;23.58;12.20;;;;;;;;;;5032181;28;20438;-60
2023/09/15 03:19:29;;;;;;;19.65;12.05;;;;;;;;;;5032127;28;20508;-60
2023/09/15 03:21:55;;;;;;;19.80;11.90;;;;;;;;;;5032334;28;20026;-60
2023/09/15 03:24:21;;;;;;;22.52;11.77;;;;;;;;;;5032415;28;20066;-62
2023/09/15 03:26:47;;;;;;;22.00;12.82;;;;;;;;;;5032760;28;20028;-60
2023/09/15 03:29:13;;;;;;;23.95;11.73;;;;;;;;;;5032178;28;20467;-60
2023/09/15 03:31:39;;;;;;;22.63;11.85;;;;;;;;;;5032239;28;20105;-60
2023/09/15 03:34:05;;;;;;;21.33;12.05;;;;;;;;;;5031902;28;20029;-59
2023/09/15 03:36:32;;;;;;;20.90;11.85;;;;;;;;;;5031779;28;20029;-61
2023/09/15 03:38:58;;;;;;;20.27;12.02;;;;;;;;;;5031686;28;20017;-59
2023/09/15 03:41:27;;;;;;;20.00;11.75;;;;;;;;;;5031883;28;20099;-60
2023/09/15 03:43:53;;;;;;;19.15;12.15;;;;;;;;;;5032164;28;20025;-60
2023/09/15 03:46:19;;;;;;;21.75;12.52;;;;;;;;;;5032488;28;20068;-60
2023/09/15 03:48:45;;;;;;;22.48;12.00;;;;;;;;;;5031614;28;20029;-60
2023/09/15 03:51:11;;;;;;;20.33;12.00;;;;;;;;;;5031887;28;20033;-61
2023/09/15 03:53:37;;;;;;;18.48;11.60;;;;;;;;;;5031576;28;20036;-62
2023/09/15 03:56:03;;;;;;;20.40;11.98;;;;;;;;;;5031834;28;20116;-60
2023/09/15 03:58:29;;;;;;;21.23;12.15;;;;;;;;;;5031592;28;20076;-60
2023/09/15 04:00:55;;;;;;;20.25;12.00;;;;;;;;;;5031869;28;20368;-61
2023/09/15 04:03:22;;;;;;;21.02;11.98;;;;;;;;;;5031704;28;20029;-60
2023/09/15 04:05:48;;;;;;;19.42;12.48;;;;;;;;;;5031674;28;20027;-60
2023/09/15 04:08:14;;;;;;;21.52;12.75;;;;;;;;;;5031445;28;20033;-60
2023/09/15 04:10:41;;;;;;;20.48;11.70;;;;;;;;;;5031684;28;20040;-60
2023/09/15 04:13:07;;;;;;;21.30;12.63;;;;;;;;;;5032688;28;20027;-61
2023/09/15 04:15:33;;;;;;;23.58;12.45;;;;;;;;;;5032252;28;20076;-61
2023/09/15 04:17:59;;;;;;;20.05;12.05;;;;;;;;;;5031781;28;20395;-57
2023/09/15 04:20:25;;;;;;;22.88;12.45;;;;;;;;;;5031707;28;20021;-61
2023/09/15 04:22:51;;;;;;;22.88;12.98;;;;;;;;;;5031827;28;20500;-61
2023/09/15 04:25:19;;;;;;;20.48;11.82;;;;;;;;;;5031195;28;20061;-60
2023/09/15 04:27:45;;;;;;;26.83;11.85;;;;;;;;;;5031140;28;20018;-61
2023/09/15 04:30:11;;;;;;;21.40;12.57;;;;;;;;;;5031322;28;20037;-61
2023/09/15 04:32:37;;;;;;;27.77;13.05;;;;;;;;;;5013430;28;20092;-61
2023/09/15 04:35:05;;;;;;;23.38;13.27;;;;;;;;;;5031223;28;20029;-61
2023/09/15 04:37:31;;;;;;;22.00;13.13;;;;;;;;;;5030782;28;20041;-61
2023/09/15 04:39:58;;;;;;;21.80;12.50;;;;;;;;;;5030881;28;20256;-58
2023/09/15 04:42:24;;;;;;;22.92;12.88;;;;;;;;;;5030688;28;20017;-60
2023/09/15 04:44:50;;;;;;;20.70;12.77;;;;;;;;;;5030862;28;20079;-60
2023/09/15 04:47:32;;;;;;;23.33;14.00;;;;;;;;;;5030779;28;20059;-60
2023/09/15 04:49:58;;;;;;;22.80;13.13;;;;;;;;;;5030814;28;20437;-60
2023/09/15 04:52:24;;;;;;;21.50;12.63;;;;;;;;;;5012750;28;20104;-60
2023/09/15 04:54:50;;;;;;;24.45;13.73;;;;;;;;;;5030834;28;20119;-60
2023/09/15 04:57:16;;;;;;;21.77;12.23;;;;;;;;;;5030878;28;20468;-59
2023/09/15 04:59:43;;;;;;;21.98;12.48;;;;;;;;;;5030488;28;20084;-61
2023/09/15 05:02:09;;;;;;;21.35;12.57;;;;;;;;;;5030716;28;20022;-60
2023/09/15 05:04:35;;;;;;;23.58;13.35;;;;;;;;;;5030218;28;20049;-60
2023/09/15 05:07:02;;;;;;;22.83;13.13;;;;;;;;;;5030635;28;20026;-60
2023/09/15 05:09:28;;;;;;;25.88;15.05;;;;;;;;;;5030993;28;20018;-60
2023/09/15 05:11:54;;;;;;;20.38;12.98;;;;;;;;;;5030703;28;20079;-62
2023/09/15 05:14:20;;;;;;;23.90;14.40;;;;;;;;;;5030653;28;20071;-61
2023/09/15 05:16:46;;;;;;;21.98;12.73;;;;;;;;;;5031018;28;20526;-59
2023/09/15 05:19:12;;;;;;;20.48;12.48;;;;;;;;;;5030379;28;20026;-61
2023/09/15 05:21:38;;;;;;;24.60;15.13;;;;;;;;;;5030435;28;20090;-61
2023/09/15 05:24:04;;;;;;;23.33;14.65;;;;;;;;;;5029990;28;20079;-61
2023/09/15 05:26:30;;;;;;;23.63;14.35;;;;;;;;;;5030539;28;20048;-60
2023/09/15 05:28:56;;;;;;;21.15;12.13;;;;;;;;;;5030457;28;20037;-60
2023/09/15 05:31:25;;;;;;;24.50;12.57;;;;;;;;;;5012725;28;20761;-61
2023/09/15 05:33:52;;;;;;;22.10;12.77;;;;;;;;;;5031016;28;20025;-60
2023/09/15 05:36:18;;;;;;;22.13;12.27;;;;;;;;;;5034413;28;20111;-61
2023/09/15 05:38:46;;;;;;;21.77;12.45;;;;;;;;;;5033757;28;20400;-60
2023/09/15 05:41:12;;;;;;;19.52;12.50;;;;;;;;;;5033922;28;20026;-61
2023/09/15 05:43:38;;;;;;;20.67;12.07;;;;;;;;;;5033421;28;20079;-61
2023/09/15 05:46:04;;;;;;;21.15;12.80;;;;;;;;;;5034157;28;20091;-60
2023/09/15 05:48:30;;;;;;;22.60;11.82;;;;;;;;;;5031676;28;20025;-59
2023/09/15 05:50:56;;;;;;;20.98;12.65;;;;;;;;;;5020701;28;20030;-59
2023/09/15 05:53:22;;;;;;;20.92;13.13;;;;;;;;;;5023646;28;20045;-57
2023/09/15 05:55:48;;;;;;;22.77;12.90;;;;;;;;;;5013519;28;20639;-56
2023/09/15 05:58:14;;;;;;;22.08;13.23;;;;;;;;;;5024371;28;20018;-58
2023/09/15 06:00:41;;;;;;;23.00;14.48;;;;;;;;;;5015234;28;20032;-59
2023/09/15 06:03:07;;;;;;;21.20;12.40;;;;;;;;;;5033073;28;20123;-58
2023/09/15 06:05:34;;;;;;;23.15;12.13;;;;;;;;;;5032284;28;20459;-53
2023/09/15 06:08:00;;;;;;;20.67;12.93;;;;;;;;;;5013109;28;20048;-59
2023/09/15 06:10:26;;;;;;;21.92;12.60;;;;;;;;;;5012975;28;20092;-59
2023/09/15 06:12:52;;;;;;;25.08;14.98;;;;;;;;;;5013195;28;20092;-59
2023/09/15 06:15:21;;;;;;;19.98;12.48;;;;;;;;;;5012821;28;20034;-60
2023/09/15 06:17:47;;;;;;;20.95;13.55;;;;;;;;;;5012681;28;20018;-60
2023/09/15 06:20:13;;;;;;;21.38;11.95;;;;;;;;;;5013073;28;20056;-56
2023/09/15 06:22:39;;;;;;;20.85;13.32;;;;;;;;;;5013454;28;20101;-59
2023/09/15 06:25:05;;;;;;;23.83;14.32;;;;;;;;;;5032434;28;20391;-60
2023/09/15 06:27:34;;;;;;;21.30;12.27;;;;;;;;;;5032330;28;20028;-56
2023/09/15 06:30:03;;;;;;;18.90;12.18;;;;;;;;;;5032004;28;20073;-61
2023/09/15 06:32:29;;;;;;;22.55;13.07;;;;;;;;;;5032576;28;20029;-60
2023/09/15 06:34:55;;;;;;;21.35;12.40;;;;;;;;;;5032429;28;20364;-59
2023/09/15 06:37:21;;;;;;;19.40;13.27;;;;;;;;;;5032288;28;20061;-60
2023/09/15 06:39:47;;;;;;;19.67;13.20;;;;;;;;;;5014154;28;20681;-59
2023/09/15 06:42:13;;;;;;;20.40;12.77;;;;;;;;;;5032280;28;20018;-59
2023/09/15 06:44:39;;;;;;;20.13;12.45;;;;;;;;;;5014620;28;20219;-60
2023/09/15 06:47:05;;;;;;;18.70;12.73;;;;;;;;;;5032324;28;20057;-59
2023/09/15 06:49:32;;;;;;;22.60;12.82;;;;;;;;;;5032158;28;20033;-60
2023/09/15 06:51:58;;;;;;;19.52;12.90;;;;;;;;;;5032728;28;20025;-60
2023/09/15 06:54:24;;;;;;;21.73;14.18;;;;;;;;;;5014838;28;20032;-60
2023/09/15 06:56:50;;;;;;;18.98;12.32;;;;;;;;;;5032576;28;20025;-60
2023/09/15 06:59:17;;;;;;;22.58;13.20;;;;;;;;;;5032646;28;20100;-60
2023/09/15 07:01:43;;;;;;;21.48;14.13;;;;;;;;;;5032301;28;20025;-61
2023/09/15 07:04:10;;;;;;;18.83;12.48;;;;;;;;;;5014793;28;20124;-60
2023/09/15 07:06:36;;;;;;;26.73;14.45;;;;;;;;;;5032463;28;20030;-60
2023/09/15 07:09:03;;;;;;;21.90;13.32;;;;;;;;;;5032261;28;20101;-60
2023/09/15 07:11:29;;;;;;;20.02;12.63;;;;;;;;;;5014750;28;20528;-61
2023/09/15 07:13:55;;;;;;;22.35;13.02;;;;;;;;;;5014433;28;20124;-60
2023/09/15 07:16:21;;;;;;;21.42;11.98;;;;;;;;;;5032145;28;20034;-48
2023/09/15 07:18:47;;;;;;;19.30;12.85;;;;;;;;;;5032032;28;20030;-49
2023/09/15 07:21:13;;;;;;;21.30;12.95;;;;;;;;;;5031744;28;20037;-47
2023/09/15 07:23:39;;;;;;;22.58;13.27;;;;;;;;;;5029730;28;20025;-47
2023/09/15 07:26:05;;;;;;;20.02;12.93;;;;;;;;;;4994204;28;20037;-46
2023/09/15 07:28:31;;;;;;;28.38;13.85;;;;;;;;;;5011583;28;20030;-49
2023/09/15 07:31:03;;;;;;;21.80;13.50;;;;;;;;;;5011176;28;20026;-45
2023/09/15 07:33:30;;;;;;;20.73;13.65;;;;;;;;;;5011458;28;20026;-49
2023/09/15 07:36:04;;;;;;;23.85;13.55;;;;;;;;;;5011470;28;20068;-49
2023/09/15 07:38:31;;;;;;;25.00;14.13;;;;;;;;;;5011428;28;20598;-48
2023/09/15 07:40:57;;;;;;;24.55;14.13;;;;;;;;;;5011206;28;20029;-54
2023/09/15 07:43:23;;;;;;;20.80;14.07;;;;;;;;;;5011392;28;20030;-51
2023/09/15 07:45:50;;;;;;;20.00;14.68;;;;;;;;;;5011196;28;20076;-47
2023/09/15 07:48:16;;;;;;;19.27;13.93;;;;;;;;;;5011133;28;20041;-47
2023/09/15 07:50:42;;;;;;;23.23;14.20;;;;;;;;;;5019667;28;20025;-49
2023/09/15 07:53:08;;;;;;;22.08;14.45;;;;;;;;;;5030480;28;20036;-48
2023/09/15 07:55:34;;;;;;;19.70;13.73;;;;;;;;;;5030929;28;20096;-49
2023/09/15 07:58:00;;;;;;;21.77;14.52;;;;;;;;;;5026198;28;20018;-47
2023/09/15 08:00:26;;;;;;;21.92;14.10;;;;;;;;;;5013307;28;20025;-50
2023/09/15 08:02:53;;;;;;;26.80;15.13;;;;;;;;;;5013010;28;20044;-52
2023/09/15 08:05:19;;;;;;;22.90;13.75;;;;;;;;;;5010671;28;20052;-54
2023/09/15 08:07:46;;;;;;;22.85;14.43;;;;;;;;;;5010666;28;20122;-50
2023/09/15 08:10:13;;;;;;;21.30;14.00;;;;;;;;;;4992989;28;20030;-52
2023/09/15 08:12:39;;;;;;;20.75;14.80;;;;;;;;;;5021305;28;20036;-50
2023/09/15 08:15:05;;;;;;;22.33;14.57;;;;;;;;;;5010453;28;20387;-53
2023/09/15 08:17:32;;;;;;;30.80;15.15;;;;;;;;;;5010176;28;20030;-52
2023/09/15 08:19:58;;;;;;;22.83;14.80;;;;;;;;;;5010037;28;20026;-52
2023/09/15 08:22:25;;;;;;;20.85;13.93;;;;;;;;;;5009974;28;20030;-52
2023/09/15 08:24:51;;;;;;;19.80;14.00;;;;;;;;;;5010699;28;20535;-51
2023/09/15 08:27:18;;;;;;;23.20;14.65;;;;;;;;;;5010776;28;20074;-52
2023/09/15 08:29:44;;;;;;;19.25;13.32;;;;;;;;;;5010614;28;20037;-52
2023/09/15 08:32:10;;;;;;;21.63;14.38;;;;;;;;;;5010497;28;20030;-50
2023/09/15 08:34:36;;;;;;;21.33;14.10;;;;;;;;;;5010287;28;20073;-51
2023/09/15 08:37:03;;;;;;;20.88;13.20;;;;;;;;;;5010446;28;20084;-49
2023/09/15 08:39:29;;;;;;;18.50;13.27;;;;;;;;;;5010695;28;20033;-53
2023/09/15 08:42:01;;;;;;;22.77;13.90;;;;;;;;;;5011256;28;20092;-48
2023/09/15 08:44:29;;;;;;;20.70;13.60;;;;;;;;;;5011163;28;20030;-49
2023/09/15 08:46:56;;;;;;;27.33;14.88;;;;;;;;;;5010466;28;20022;-49
2023/09/15 08:49:23;;;;;;;23.63;13.73;;;;;;;;;;5010365;28;20110;-52
2023/09/15 08:51:49;;;;;;;19.60;13.40;;;;;;;;;;5028359;28;20095;-50
2023/09/15 08:54:16;;;;;;;21.42;14.07;;;;;;;;;;5029905;28;20108;-49
2023/09/15 08:56:43;;;;;;;19.48;13.57;;;;;;;;;;5029803;28;20136;-50
2023/09/15 08:59:10;;;;;;;18.33;13.73;;;;;;;;;;5030157;28;20105;-52
2023/09/15 09:01:36;;;;;;;21.35;14.00;;;;;;;;;;5030215;28;20022;-50
2023/09/15 09:04:03;;;;;;;20.75;13.60;;;;;;;;;;5030062;28;20095;-48
2023/09/15 09:06:32;;;;;;;20.10;13.55;;;;;;;;;;5029892;28;20083;-52
2023/09/15 09:08:59;;;;;;;25.30;14.60;;;;;;;;;;5030819;28;20048;-49
2023/09/15 09:11:26;;;;;;;19.27;13.60;;;;;;;;;;5016239;28;20053;-48
2023/09/15 09:13:52;;;;;;;21.60;13.40;;;;;;;;;;5033895;28;20030;-53
2023/09/15 09:16:20;;;;;;;22.05;13.32;;;;;;;;;;5034149;28;20394;-47
2023/09/15 09:18:58;;;;;;;22.25;14.23;;;;;;;;;;5033384;28;20040;-51
2023/09/15 09:21:28;;;;;;;19.13;13.50;;;;;;;;;;5033513;28;20091;-47
2023/09/15 09:23:55;;;;;;;20.25;13.50;;;;;;;;;;5015987;28;20080;-50
2023/09/15 09:26:21;;;;;;;17.70;13.55;;;;;;;;;;5033403;28;20110;-51
2023/09/15 09:28:47;;;;;;;21.70;13.95;;;;;;;;;;5033435;28;20030;-47
2023/09/15 09:31:13;;;;;;;18.45;13.02;;;;;;;;;;5032981;28;20030;-48
2023/09/15 09:33:40;;;;;;;19.33;13.23;;;;;;;;;;5033472;28;20120;-50
2023/09/15 09:36:24;;;;;;;19.40;13.95;;;;;;;;;;5015928;28;20050;-54
2023/09/15 09:38:51;;;;;;;22.02;13.25;;;;;;;;;;5033352;28;20056;-51
2023/09/15 09:41:18;;;;;;;19.90;13.93;;;;;;;;;;5031615;28;20037;-51
2023/09/15 09:43:46;;;;;;;20.10;13.68;;;;;;;;;;5032728;28;20055;-49
2023/09/15 09:46:13;;;;;;;23.02;15.05;;;;;;;;;;5033122;28;20403;-48
2023/09/15 09:48:39;;;;;;;18.27;13.68;;;;;;;;;;5033118;28;20025;-51
2023/09/15 09:51:05;;;;;;;20.67;14.40;;;;;;;;;;5032903;28;20116;-47
2023/09/15 09:53:33;;;;;;;19.90;14.13;;;;;;;;;;5032948;28;20064;-48
2023/09/15 09:55:59;;;;;;;21.35;14.13;;;;;;;;;;5033758;28;20022;-50
2023/09/15 09:58:26;;;;;;;20.35;15.02;;;;;;;;;;5033712;28;20489;-53
2023/09/15 10:00:52;;;;;;;18.00;13.48;;;;;;;;;;5015365;28;20025;-47
2023/09/15 10:03:19;;;;;;;21.75;15.20;;;;;;;;;;5033919;28;20053;-48
2023/09/15 10:05:45;;;;;;;19.08;14.00;;;;;;;;;;5033172;28;20033;-53
2023/09/15 10:08:11;;;;;;;18.10;13.40;;;;;;;;;;5033235;28;20506;-49
2023/09/15 10:10:41;;;;;;;20.63;14.13;;;;;;;;;;5032697;28;20033;-48
2023/09/15 10:13:08;;;;;;;18.35;14.10;;;;;;;;;;5033312;28;20033;-49
2023/09/15 10:15:44;;;;;;;19.30;13.82;;;;;;;;;;5015463;28;20037;-53
2023/09/15 10:18:14;;;;;;;20.35;14.45;;;;;;;;;;5033263;28;20029;-51
2023/09/15 10:20:40;;;;;;;17.73;13.85;;;;;;;;;;5033218;28;20068;-52
2023/09/15 10:23:07;;;;;;;19.17;14.30;;;;;;;;;;5016471;28;20120;-50
2023/09/15 10:25:41;;;;;;;19.25;14.88;;;;;;;;;;5034587;28;20030;-52
2023/09/15 10:28:08;;;;;;;18.95;15.32;;;;;;;;;;5033840;28;20025;-49
2023/09/15 10:30:37;;;;;;;18.85;14.13;;;;;;;;;;5033336;28;20021;-52
2023/09/15 10:33:03;;;;;;;20.58;15.15;;;;;;;;;;5032334;28;20172;-54
2023/09/15 10:35:29;;;;;;;20.80;14.98;;;;;;;;;;5014142;28;20080;-50
2023/09/15 10:38:02;;;;;;;18.48;14.70;;;;;;;;;;5032236;28;20026;-51
2023/09/15 10:40:28;;;;;;;18.58;15.02;;;;;;;;;;5013998;28;20082;-48
2023/09/15 10:42:55;;;;;;;20.25;15.00;;;;;;;;;;5032032;28;20108;-48
2023/09/15 10:45:21;;;;;;;23.67;15.13;;;;;;;;;;5032010;28;20041;-48
2023/09/15 10:47:58;;;;;;;18.48;14.63;;;;;;;;;;5031752;28;20442;-49
2023/09/15 10:50:31;;;;;;;20.10;15.25;;;;;;;;;;5027954;28;20108;-48
2023/09/15 10:53:05;;;;;;;23.45;15.48;;;;;;;;;;5031733;28;20025;-51
2023/09/15 10:55:32;;;;;;;24.98;14.85;;;;;;;;;;5021602;28;20033;-45
2023/09/15 10:57:58;;;;;;;19.00;14.70;;;;;;;;;;5011594;28;20468;-51
2023/09/15 11:00:24;;;;;;;23.30;15.77;;;;;;;;;;5011564;28;20030;-46
2023/09/15 11:02:50;;;;;;;18.85;14.35;;;;;;;;;;5011523;28;20128;-47
2023/09/15 11:05:16;;;;;;;18.95;13.90;;;;;;;;;;5011367;28;20502;-49
2023/09/15 11:07:43;;;;;;;19.70;14.57;;;;;;;;;;5011544;28;20029;-53
2023/09/15 11:10:09;;;;;;;19.75;14.73;;;;;;;;;;5011322;28;20032;-51
2023/09/15 11:12:35;;;;;;;18.63;14.73;;;;;;;;;;5011553;28;20057;-47
2023/09/15 11:15:01;;;;;;;20.23;15.68;;;;;;;;;;4993355;28;20033;-47
2023/09/15 11:17:30;;;;;;;19.48;14.95;;;;;;;;;;5011323;28;20029;-49
2023/09/15 11:19:57;;;;;;;20.23;15.90;;;;;;;;;;5008909;28;20029;-50
2023/09/15 11:22:23;;;;;;;18.75;15.40;;;;;;;;;;5011216;28;20079;-47
2023/09/15 11:24:52;;;;;;;20.15;15.82;;;;;;;;;;5011353;28;20042;-51
2023/09/15 11:27:18;;;;;;;20.17;15.70;;;;;;;;;;5011432;28;20022;-50
2023/09/15 11:29:44;;;;;;;19.08;15.18;;;;;;;;;;5011016;28;20453;-55
2023/09/15 11:32:10;;;;;;;20.25;15.70;;;;;;;;;;5011012;28;20033;-50
2023/09/15 11:34:36;;;;;;;19.70;15.77;;;;;;;;;;5011242;28;20030;-51
2023/09/15 11:37:03;;;;;;;19.42;15.70;;;;;;;;;;5011408;28;20504;-49
2023/09/15 11:39:29;;;;;;;18.83;15.95;;;;;;;;;;5010886;28;20062;-50
2023/09/15 11:41:56;;;;;;;19.60;16.20;;;;;;;;;;5011344;28;20487;-54
2023/09/15 11:44:24;;;;;;;19.90;15.90;;;;;;;;;;5011371;28;20030;-53
2023/09/15 11:46:50;;;;;;;18.88;15.82;;;;;;;;;;5011096;28;20109;-48
2023/09/15 11:49:18;;;;;;;20.30;16.83;;;;;;;;;;5010929;28;20026;-51
2023/09/15 11:51:44;;;;;;;20.45;16.35;;;;;;;;;;5036772;28;20049;-50
2023/09/15 11:54:10;;;;;;;22.17;16.55;;;;;;;;;;5050117;28;20036;-48
2023/09/15 11:56:37;;;;;;;18.58;16.48;;;;;;;;;;5050282;28;20056;-51
2023/09/15 11:59:03;;;;;;;21.48;16.60;;;;;;;;;;5050063;28;20032;-51
2023/09/15 12:01:32;;;;;;;18.70;16.70;;;;;;;;;;5049810;28;20582;-52
2023/09/15 12:03:59;;;;;;;17.98;15.55;;;;;;;;;;5050171;28;20498;-57
2023/09/15 12:06:26;;;;;;;18.08;15.40;;;;;;;;;;5050207;28;20036;-58
2023/09/15 12:08:52;;;;;;;22.23;15.75;;;;;;;;;;5050109;28;20391;-58
2023/09/15 12:11:19;;;;;;;19.02;15.70;;;;;;;;;;5050287;28;20450;-59
2023/09/15 12:13:52;;;;;;;18.27;15.50;;;;;;;;;;5031932;28;20195;-58
2023/09/15 12:16:27;;;;;;;18.48;15.57;;;;;;;;;;5049950;28;20029;-57
2023/09/15 12:18:54;;;;;;;21.25;16.08;;;;;;;;;;5050544;28;20398;-56
2023/09/15 12:21:24;;;;;;;18.00;14.85;;;;;;;;;;5049519;28;20103;-54
2023/09/15 12:23:56;;;;;;;20.17;15.50;;;;;;;;;;5032191;28;20031;-52
2023/09/15 12:26:24;;;;;;;18.50;15.23;;;;;;;;;;5049751;28;20032;-59
2023/09/15 12:28:51;;;;;;;18.75;15.35;;;;;;;;;;5049648;28;20021;-54
2023/09/15 12:31:18;;;;;;;20.80;16.08;;;;;;;;;;5049185;28;20032;-57
2023/09/15 12:33:49;;;;;;;18.95;15.48;;;;;;;;;;5049813;28;20081;-53
2023/09/15 12:36:15;;;;;;;21.27;16.15;;;;;;;;;;5049232;28;20032;-54
2023/09/15 12:38:42;;;;;;;18.15;15.77;;;;;;;;;;5048971;28;20055;-57
2023/09/15 12:41:08;;;;;;;19.05;15.90;;;;;;;;;;5049040;28;20025;-53
2023/09/15 12:43:35;;;;;;;18.45;15.27;;;;;;;;;;5049024;28;20108;-58
2023/09/15 12:46:01;;;;;;;18.02;16.13;;;;;;;;;;5049350;28;20079;-58
2023/09/15 12:48:27;;;;;;;18.55;16.02;;;;;;;;;;5049432;28;20040;-57
2023/09/15 12:50:54;;;;;;;17.70;15.80;;;;;;;;;;5038694;28;20032;-61
2023/09/15 12:53:20;;;;;;;17.92;16.02;;;;;;;;;;5029318;28;20026;-58
2023/09/15 12:55:46;;;;;;;21.02;16.40;;;;;;;;;;5029409;28;20034;-56
2023/09/15 12:58:12;;;;;;;18.05;15.52;;;;;;;;;;5029471;28;20025;-60
2023/09/15 13:00:38;;;;;;;19.40;16.23;;;;;;;;;;5029018;28;20028;-59
2023/09/15 13:03:05;;;;;;;17.88;15.98;;;;;;;;;;5029289;28;20029;-54
2023/09/15 13:05:31;;;;;;;19.50;16.20;;;;;;;;;;5029570;28;20156;-56
2023/09/15 13:07:57;;;;;;;19.38;16.30;;;;;;;;;;5029769;28;20408;-58
2023/09/15 13:10:23;;;;;;;18.58;16.52;;;;;;;;;;5029722;28;20025;-58
2023/09/15 13:12:49;;;;;;;19.67;15.90;;;;;;;;;;5029391;28;20033;-58
2023/09/15 13:15:15;;;;;;;20.55;16.35;;;;;;;;;;5029604;28;20491;-52
2023/09/15 13:17:41;;;;;;;19.50;17.10;;;;;;;;;;5005707;28;20026;-57
2023/09/15 13:20:07;;;;;;;20.15;16.77;;;;;;;;;;5024595;28;20407;-58
2023/09/15 13:22:35;;;;;;;18.42;16.15;;;;;;;;;;5009626;28;20061;-58
2023/09/15 13:25:01;;;;;;;20.85;17.20;;;;;;;;;;5009633;28;20108;-56
2023/09/15 13:27:28;;;;;;;20.02;16.63;;;;;;;;;;5009759;28;20510;-55
2023/09/15 13:29:57;;;;;;;19.03;16.40;;;;;;;;;;5009839;28;20133;-58
2023/09/15 13:32:23;;;;;;;18.38;16.38;;;;;;;;;;5009410;28;20279;-58
2023/09/15 13:34:49;;;;;;;18.70;16.58;;;;;;;;;;5014337;28;20113;-59
2023/09/15 13:37:15;;;;;;;20.52;16.88;;;;;;;;;;5010472;28;20063;-57
2023/09/15 13:39:41;;;;;;;18.50;16.50;;;;;;;;;;5010986;28;20026;-57
2023/09/15 13:42:07;;;;;;;18.35;16.23;;;;;;;;;;4992193;28;20022;-59
2023/09/15 13:44:33;;;;;;;18.95;16.00;;;;;;;;;;5009600;28;20026;-60
2023/09/15 13:46:59;;;;;;;19.90;16.85;;;;;;;;;;5015770;28;20030;-59
2023/09/15 13:49:24;;;;;;;19.20;16.70;;;;;;;;;;5018633;28;20049;-59
2023/09/15 13:51:50;;;;;;;19.67;16.58;;;;;;;;;;5019349;28;20033;-55
2023/09/15 13:54:18;;;;;;;19.42;16.20;;;;;;;;;;5029044;28;20032;-58
2023/09/15 13:56:44;;;;;;;18.73;15.88;;;;;;;;;;5032918;28;20419;-58
2023/09/15 13:59:11;;;;;;;19.17;16.83;;;;;;;;;;5032841;28;20026;-60
2023/09/15 14:01:39;;;;;;;18.58;16.58;;;;;;;;;;5032990;28;20018;-59
2023/09/15 14:04:06;;;;;;;18.10;15.63;;;;;;;;;;5014876;28;20036;-60
2023/09/15 14:06:32;;;;;;;20.05;17.23;;;;;;;;;;5032551;28;20036;-57
2023/09/15 14:08:58;;;;;;;18.63;16.05;;;;;;;;;;5032434;28;20029;-61
2023/09/15 14:11:25;;;;;;;18.95;16.55;;;;;;;;;;5032625;28;20100;-59
2023/09/15 14:13:51;;;;;;;21.98;16.38;;;;;;;;;;5032789;28;20037;-57